Harbor Heights, New York
Current Conditions -  °F | °C
As of 10:53 PM on Friday 19 Dec 2014 (Local Time) from KFRG Reporting Station
Clear Clear  
Wind Chill: 26°   Ceiling: Unl
Heat Index: 32°   Visibility: 10mi
Dew Point: 20°   Wind: 7mph
Humidity: 61%   Direction: 360°N
Pressure: 30.17"   Gusts: NA
Location:  40.8966°N, 73.4362°W
Report Text: KFRG 200353Z 36006KT 10SM CLR 00/M07 A3017 RMK AO2 SLP216 T00001067
Loading
Personal Weather Stations






























Interactive Weather Map New forecast layout! Learn more

10-Day Weather Forecast

Advertisements
Track Severe Weather on mobile